createdAt,value
2023-02-19T00:03:18.048Z,4.99
2023-02-19T00:08:19.850Z,6.09
2023-02-19T00:13:21.681Z,6.64
2023-02-19T00:18:24.079Z,6.65
2023-02-19T00:23:27.008Z,7.18
2023-02-19T00:28:28.752Z,7.64
2023-02-19T00:33:30.556Z,7.42
2023-02-19T00:38:36.160Z,7.36
2023-02-19T00:43:38.056Z,7.66
2023-02-19T00:48:39.891Z,6.82
2023-02-19T00:53:42.692Z,7.58
2023-02-19T00:58:44.478Z,7.50
2023-02-19T01:03:47.259Z,7.42
2023-02-19T01:08:49.250Z,6.98
2023-02-19T01:13:51.091Z,7.12
2023-02-19T01:18:54.183Z,7.30
2023-02-19T01:23:56.818Z,6.41
2023-02-19T01:29:01.662Z,6.73
2023-02-19T01:34:04.909Z,6.59
2023-02-19T01:39:07.153Z,6.79
2023-02-19T01:44:12.196Z,7.09
2023-02-19T01:49:34.031Z,7.09
2023-02-19T01:54:40.038Z,6.78
2023-02-19T01:59:43.171Z,6.92
2023-02-19T02:04:44.984Z,6.94
2023-02-19T02:10:05.287Z,6.14
2023-02-19T02:15:07.895Z,6.85
2023-02-19T02:20:12.717Z,7.06
2023-02-19T02:25:38.865Z,6.80
2023-02-19T02:30:44.998Z,7.26
2023-02-19T02:35:56.104Z,6.61
2023-02-19T02:40:59.043Z,6.50
2023-02-19T02:46:01.395Z,6.82
2023-02-19T02:51:06.600Z,6.77
2023-02-19T02:56:17.356Z,6.49
2023-02-19T03:01:51.983Z,6.33
2023-02-19T03:06:57.038Z,6.21
2023-02-19T03:12:22.418Z,5.36
2023-02-19T03:18:15.297Z,5.98
2023-02-19T03:23:20.414Z,6.37
2023-02-19T03:28:46.626Z,5.50
2023-02-19T03:33:53.989Z,6.16
2023-02-19T03:39:03.943Z,6.57
2023-02-19T03:44:17.789Z,6.16
2023-02-19T03:49:30.458Z,5.82
2023-02-19T03:54:38.535Z,6.38
2023-02-19T03:59:48.909Z,6.09
2023-02-19T04:04:58.826Z,6.20
2023-02-19T04:10:03.947Z,6.45
2023-02-19T04:15:14.629Z,5.96
2023-02-19T04:20:16.769Z,6.53
2023-02-19T04:25:18.845Z,5.43
2023-02-19T04:30:21.508Z,5.63
2023-02-19T04:35:23.276Z,6.08
2023-02-19T04:40:25.106Z,6.23
2023-02-19T04:45:27.330Z,6.27
2023-02-19T04:50:29.140Z,6.20
2023-02-19T04:55:30.883Z,6.37
2023-02-19T05:00:34.066Z,6.21
2023-02-19T05:05:35.916Z,6.12
2023-02-19T05:10:37.647Z,6.33
2023-02-19T05:15:39.530Z,5.25
2023-02-19T05:20:41.343Z,5.90
2023-02-19T05:25:43.122Z,5.69
2023-02-19T05:30:44.923Z,5.71
2023-02-19T05:35:49.240Z,6.10
2023-02-19T05:40:51.471Z,6.18
2023-02-19T05:45:53.390Z,5.48
2023-02-19T05:50:55.196Z,6.39
2023-02-19T05:55:57.351Z,5.81
2023-02-19T06:00:59.106Z,6.11
2023-02-19T06:06:03.631Z,6.39
2023-02-19T06:11:05.663Z,6.23
2023-02-19T06:16:08.730Z,6.10
2023-02-19T06:21:12.595Z,6.20
2023-02-19T06:26:17.667Z,6.08
2023-02-19T06:31:21.759Z,6.37
2023-02-19T06:36:24.289Z,5.60
2023-02-19T06:41:26.132Z,5.83
2023-02-19T06:46:28.489Z,4.68
2023-02-19T06:51:32.604Z,6.13
2023-02-19T06:56:38.256Z,6.21
2023-02-19T07:01:40.727Z,5.60
2023-02-19T07:06:42.635Z,5.94
2023-02-19T07:11:44.439Z,6.03
2023-02-19T07:16:47.494Z,5.27
2023-02-19T07:21:49.392Z,6.32
2023-02-19T07:26:51.222Z,6.89
2023-02-19T07:31:53.041Z,5.13
2023-02-19T07:36:54.886Z,5.98
2023-02-19T07:41:57.665Z,7.05
2023-02-19T07:47:02.480Z,7.48
2023-02-19T07:52:04.423Z,6.93
2023-02-19T07:57:06.263Z,7.42
2023-02-19T08:02:38.162Z,7.84
2023-02-19T08:07:40.528Z,7.73
2023-02-19T08:13:01.403Z,7.45
2023-02-19T08:18:03.336Z,7.41
2023-02-19T08:23:05.285Z,7.56
2023-02-19T08:28:08.587Z,7.22
2023-02-19T08:33:12.793Z,7.72
2023-02-19T08:38:16.492Z,5.54
2023-02-19T08:43:19.279Z,5.23
2023-02-19T08:48:21.427Z,6.43
2023-02-19T08:53:24.600Z,6.21
2023-02-19T08:58:26.449Z,4.08
2023-02-19T09:03:28.348Z,6.13
2023-02-19T09:08:30.232Z,6.37
2023-02-19T09:13:32.071Z,5.74
2023-02-19T09:18:34.012Z,6.92
2023-02-19T09:23:36.954Z,7.88
2023-02-19T09:28:41.725Z,6.78
2023-02-19T09:33:48.064Z,7.56
2023-02-19T09:38:49.906Z,5.60
2023-02-19T09:43:51.975Z,6.22
2023-02-19T09:49:01.714Z,5.32
2023-02-19T09:54:06.371Z,4.27
2023-02-19T09:59:20.808Z,7.82
2023-02-19T10:04:22.704Z,5.46
2023-02-19T10:09:27.215Z,5.97
2023-02-19T10:14:35.217Z,7.45
2023-02-19T10:19:37.182Z,5.22
2023-02-19T10:24:43.310Z,3.94
2023-02-19T10:29:47.737Z,2.65
2023-02-19T10:35:12.754Z,3.81
2023-02-19T10:40:18.123Z,6.91
2023-02-19T10:45:24.583Z,8.20
2023-02-19T10:50:39.220Z,9.08
2023-02-19T10:55:41.276Z,7.80
2023-02-19T11:00:43.102Z,7.29
2023-02-19T11:05:58.081Z,5.56
2023-02-19T11:11:00.111Z,4.91
2023-02-19T11:16:02.198Z,5.51
2023-02-19T11:21:07.098Z,8.27
2023-02-19T11:26:19.708Z,10.46
2023-02-19T11:31:24.347Z,10.07
2023-02-19T11:36:30.116Z,5.68
2023-02-19T11:41:44.465Z,6.63
2023-02-19T11:47:07.680Z,6.52
2023-02-19T11:52:34.388Z,6.79
2023-02-19T11:57:42.812Z,7.37
2023-02-19T12:03:21.632Z,6.92
2023-02-19T12:08:38.228Z,6.44
2023-02-19T12:13:59.262Z,6.61
2023-02-19T12:19:08.203Z,7.54
2023-02-19T12:24:26.454Z,4.91
2023-02-19T12:29:51.837Z,6.82
2023-02-19T12:35:29.045Z,8.45
2023-02-19T12:40:55.456Z,7.38
2023-02-19T12:46:05.964Z,7.25
2023-02-19T12:51:22.966Z,7.32
2023-02-19T12:56:38.212Z,10.54
2023-02-19T13:01:49.686Z,11.36
2023-02-19T13:07:07.111Z,9.67
2023-02-19T13:12:17.786Z,8.96
2023-02-19T13:17:41.396Z,11.03
2023-02-19T13:23:25.817Z,7.66
2023-02-19T13:28:46.512Z,8.39
2023-02-19T13:34:22.701Z,11.27
2023-02-19T13:39:24.762Z,12.03
2023-02-19T13:44:30.816Z,7.75
2023-02-19T13:49:34.029Z,12.11
2023-02-19T13:54:39.956Z,11.98
2023-02-19T13:59:42.357Z,12.30
2023-02-19T14:04:56.943Z,10.82
2023-02-19T14:10:01.091Z,12.87
2023-02-19T14:15:24.741Z,11.95
2023-02-19T14:20:45.015Z,10.74
2023-02-19T14:25:52.665Z,10.03
2023-02-19T14:30:58.308Z,8.47
2023-02-19T14:36:03.921Z,10.10
2023-02-19T14:41:07.466Z,10.65
2023-02-19T14:46:18.638Z,8.42
2023-02-19T14:51:40.119Z,11.42
2023-02-19T14:56:46.715Z,11.85
2023-02-19T15:01:56.046Z,11.69
2023-02-19T15:07:03.062Z,13.92
2023-02-19T15:12:05.845Z,12.00
2023-02-19T15:17:07.917Z,14.10
2023-02-19T15:22:17.424Z,14.91
2023-02-19T15:27:23.339Z,13.54
2023-02-19T15:32:27.162Z,11.64
2023-02-19T15:37:33.026Z,11.42
2023-02-19T15:42:37.171Z,10.66
2023-02-19T15:47:49.222Z,10.47
2023-02-19T15:53:14.299Z,11.64
2023-02-19T15:58:27.828Z,11.50
2023-02-19T16:03:31.044Z,10.26
2023-02-19T16:08:35.994Z,10.65
2023-02-19T16:13:37.774Z,12.22
2023-02-19T16:18:47.620Z,12.14
2023-02-19T16:23:54.783Z,11.97
2023-02-19T16:28:56.827Z,10.22
2023-02-19T16:34:17.643Z,10.64
2023-02-19T16:39:21.162Z,11.82
2023-02-19T16:44:27.449Z,12.71
2023-02-19T16:49:29.581Z,11.79
2023-02-19T16:54:31.516Z,11.48
2023-02-19T16:59:33.376Z,9.62
2023-02-19T17:04:35.477Z,8.84
2023-02-19T17:09:37.335Z,9.54
2023-02-19T17:14:39.240Z,10.20
2023-02-19T17:19:41.082Z,10.47
2023-02-19T17:24:44.413Z,11.18
2023-02-19T17:29:46.243Z,10.14
2023-02-19T17:34:49.647Z,11.08
2023-02-19T17:39:51.481Z,10.23
2023-02-19T17:44:53.579Z,11.44
2023-02-19T17:49:55.972Z,12.20
2023-02-19T17:54:57.820Z,12.72
2023-02-19T18:00:00.690Z,12.21
2023-02-19T18:05:02.666Z,12.68
2023-02-19T18:10:05.957Z,12.64
2023-02-19T18:15:09.106Z,12.38
2023-02-19T18:20:19.998Z,12.72
2023-02-19T18:25:22.640Z,11.14
2023-02-19T18:30:24.763Z,11.33
2023-02-19T18:35:26.692Z,10.22
2023-02-19T18:40:28.947Z,10.80
2023-02-19T18:45:35.194Z,10.19
2023-02-19T18:50:37.890Z,11.64
2023-02-19T18:55:40.014Z,11.09
2023-02-19T19:00:41.863Z,11.10
2023-02-19T19:05:43.807Z,8.66
2023-02-19T19:10:45.621Z,9.56
2023-02-19T19:15:51.514Z,8.81
2023-02-19T19:20:56.599Z,9.58
2023-02-19T19:25:58.508Z,10.30
2023-02-19T19:31:00.656Z,11.07
2023-02-19T19:36:02.455Z,10.81
2023-02-19T19:41:05.294Z,10.88
2023-02-19T19:46:08.656Z,11.15
2023-02-19T19:51:10.924Z,9.65
2023-02-19T19:56:12.971Z,9.16
2023-02-19T20:01:15.102Z,8.82
2023-02-19T20:06:26.146Z,9.25
2023-02-19T20:11:28.025Z,8.48
2023-02-19T20:16:29.835Z,8.99
2023-02-19T20:21:31.743Z,9.62
2023-02-19T20:26:33.563Z,9.11
2023-02-19T20:31:35.481Z,10.16
2023-02-19T20:36:43.126Z,10.08
2023-02-19T20:41:51.028Z,10.09
2023-02-19T20:46:54.494Z,9.19
2023-02-19T20:51:59.816Z,9.46
2023-02-19T20:57:04.669Z,9.66
2023-02-19T21:02:14.477Z,9.10
2023-02-19T21:07:16.745Z,9.02
2023-02-19T21:12:20.248Z,7.96
2023-02-19T21:17:23.007Z,9.14
2023-02-19T21:22:25.102Z,9.21
2023-02-19T21:27:26.949Z,9.00
2023-02-19T21:32:28.698Z,9.19
2023-02-19T21:37:31.689Z,9.17
2023-02-19T21:42:33.826Z,8.85
2023-02-19T21:47:35.614Z,9.47
2023-02-19T21:52:37.400Z,8.39
2023-02-19T21:57:39.186Z,8.50
2023-02-19T22:02:42.248Z,7.58
2023-02-19T22:07:44.122Z,8.24
2023-02-19T22:12:45.973Z,8.28
2023-02-19T22:17:47.702Z,8.30
2023-02-19T22:22:49.850Z,8.81
2023-02-19T22:27:51.531Z,8.38
2023-02-19T22:32:53.551Z,8.17
2023-02-19T22:37:55.263Z,8.27
2023-02-19T22:42:56.951Z,7.48
2023-02-19T22:47:58.683Z,8.10
2023-02-19T22:53:00.419Z,7.64
2023-02-19T22:58:02.121Z,6.06
2023-02-19T23:03:03.859Z,6.88
2023-02-19T23:08:05.930Z,7.73
2023-02-19T23:13:07.707Z,5.73
2023-02-19T23:18:09.398Z,7.36
2023-02-19T23:23:11.446Z,6.83
2023-02-19T23:28:13.152Z,7.72
2023-02-19T23:33:14.882Z,8.55
2023-02-19T23:38:16.882Z,8.44
2023-02-19T23:43:19.490Z,8.89
2023-02-19T23:48:21.238Z,8.54
2023-02-19T23:53:23.097Z,7.60
2023-02-19T23:58:24.836Z,8.16
